Time;durP1;ratioP1;P1;durP2;ratioP2;P2;SDS_P1;SDS_P2;PMS_P1;PMS_P2;Temp;Humidity;BMP_temperature;BMP_pressure;BME280_temperature;BME280_humidity;BME280_pressure;Samples;Min_cycle;Max_cycle;Signal;HPM_P1;HPM_P2
2021/08/12 00:01:49;;;;;;;4.57;4.28;;;15.20;99.90;;;;;;4989215;28;20121;-69
2021/08/12 00:04:18;;;;;;;4.80;4.38;;;15.10;99.90;;;;;;4972662;28;20049;-69
2021/08/12 00:06:44;;;;;;;4.78;4.38;;;15.10;99.90;;;;;;4988611;28;20038;-69
2021/08/12 00:09:10;;;;;;;5.20;4.60;;;15.00;99.90;;;;;;4990291;28;20030;-69
2021/08/12 00:11:36;;;;;;;4.38;4.07;;;15.00;99.90;;;;;;4989556;28;20107;-69
2021/08/12 00:14:02;;;;;;;5.30;4.90;;;15.00;99.90;;;;;;4989806;28;20042;-69
2021/08/12 00:16:27;;;;;;;4.85;4.47;;;15.00;99.90;;;;;;4990328;28;20039;-69
2021/08/12 00:18:56;;;;;;;4.78;4.38;;;15.00;99.90;;;;;;4988168;28;20065;-69
2021/08/12 00:21:23;;;;;;;4.47;4.18;;;15.00;99.90;;;;;;4990314;28;20610;-69
2021/08/12 00:23:49;;;;;;;5.07;4.53;;;14.90;99.90;;;;;;4989582;28;20491;-67
2021/08/12 00:26:15;;;;;;;5.13;4.72;;;14.90;99.90;;;;;;4989452;28;20484;-67
2021/08/12 00:28:41;;;;;;;4.57;4.18;;;14.90;99.90;;;;;;4987297;28;20047;-69
2021/08/12 00:31:06;;;;;;;4.50;4.20;;;14.90;99.90;;;;;;4990173;28;20038;-69
2021/08/12 00:33:34;;;;;;;3.92;3.63;;;14.80;99.90;;;;;;4990990;28;20084;-69
2021/08/12 00:36:00;;;;;;;5.80;4.03;;;14.80;99.90;;;;;;4988217;28;20042;-69
2021/08/12 00:38:27;;;;;;;3.78;3.58;;;14.70;99.90;;;;;;4989999;28;20050;-69
2021/08/12 00:40:52;;;;;;;4.18;3.50;;;14.70;99.90;;;;;;4988754;28;20123;-69
2021/08/12 00:43:19;;;;;;;3.35;3.13;;;14.70;99.90;;;;;;4986472;28;20038;-68
2021/08/12 00:45:44;;;;;;;3.47;3.25;;;14.70;99.90;;;;;;4990877;28;20035;-69
2021/08/12 00:48:10;;;;;;;5.15;3.33;;;14.70;99.90;;;;;;4988002;28;20556;-69
2021/08/12 00:50:41;;;;;;;3.80;3.40;;;14.70;99.90;;;;;;4989717;28;20030;-69
2021/08/12 00:53:08;;;;;;;3.20;3.00;;;14.70;99.90;;;;;;4986203;28;20421;-69
2021/08/12 00:55:35;;;;;;;3.17;2.88;;;14.70;99.90;;;;;;4989362;28;20117;-69
2021/08/12 00:58:02;;;;;;;2.83;2.63;;;14.70;99.90;;;;;;4988370;28;20042;-69
2021/08/12 01:00:27;;;;;;;2.55;2.45;;;14.70;99.90;;;;;;4989707;28;20034;-69
2021/08/12 01:02:53;;;;;;;2.38;2.17;;;14.70;99.90;;;;;;4987555;28;20041;-69
2021/08/12 01:05:19;;;;;;;3.05;2.85;;;14.70;99.90;;;;;;4990418;28;20172;-69
2021/08/12 01:07:59;;;;;;;2.97;2.78;;;14.70;99.90;;;;;;4986351;28;20501;-69
2021/08/12 01:10:29;;;;;;;3.15;2.95;;;14.70;99.90;;;;;;4988610;28;20464;-69
2021/08/12 01:13:02;;;;;;;2.83;2.63;;;14.70;99.90;;;;;;4988930;28;20069;-68
2021/08/12 01:15:38;;;;;;;2.85;2.65;;;14.70;99.90;;;;;;4989879;28;20157;-69
2021/08/12 01:18:14;;;;;;;2.92;2.72;;;14.60;99.90;;;;;;4989926;28;20050;-69
2021/08/12 01:20:39;;;;;;;2.53;2.38;;;14.60;99.90;;;;;;4989418;28;20571;-69
2021/08/12 01:23:10;;;;;;;3.17;2.95;;;14.60;99.90;;;;;;4987750;28;20042;-68
2021/08/12 01:25:38;;;;;;;3.15;2.95;;;14.50;99.90;;;;;;4987803;28;20042;-69
2021/08/12 01:28:18;;;;;;;3.10;2.90;;;14.50;99.90;;;;;;4987608;28;20085;-69
2021/08/12 01:30:56;;;;;;;3.15;2.90;;;14.50;99.90;;;;;;4988403;28;20768;-69
2021/08/12 01:33:46;;;;;;;3.25;2.90;;;14.50;99.90;;;;;;4974581;28;20047;-69
2021/08/12 01:36:14;;;;;;;3.17;2.97;;;14.50;99.90;;;;;;4989367;28;20046;-69
2021/08/12 01:38:43;;;;;;;4.25;3.13;;;14.50;99.90;;;;;;4974764;28;20053;-65
2021/08/12 01:41:09;;;;;;;3.28;3.08;;;14.40;99.90;;;;;;4987897;28;20041;-65
2021/08/12 01:43:35;;;;;;;2.97;2.78;;;14.40;99.90;;;;;;4989212;28;20073;-65
2021/08/12 01:46:03;;;;;;;4.00;3.70;;;14.40;99.90;;;;;;4989119;28;20504;-65
2021/08/12 01:48:32;;;;;;;3.33;3.13;;;14.40;99.90;;;;;;4985228;28;20046;-63
2021/08/12 01:50:58;;;;;;;3.28;2.97;;;14.30;99.90;;;;;;4988407;28;20042;-63
2021/08/12 01:53:25;;;;;;;3.13;2.60;;;14.30;99.90;;;;;;4988149;28;20030;-64
2021/08/12 01:55:52;;;;;;;3.33;3.03;;;14.30;99.90;;;;;;4989597;28;20056;-64
2021/08/12 01:58:21;;;;;;;3.70;3.40;;;14.30;99.90;;;;;;4985365;28;20050;-64
2021/08/12 02:00:47;;;;;;;3.67;3.38;;;14.30;99.90;;;;;;4986604;28;20045;-64
2021/08/12 02:03:17;;;;;;;3.42;3.22;;;14.20;99.90;;;;;;4987063;28;20038;-64
2021/08/12 02:05:44;;;;;;;3.03;2.83;;;14.20;99.90;;;;;;4971310;28;20050;-64
2021/08/12 02:08:10;;;;;;;4.32;4.00;;;14.10;99.90;;;;;;4987187;28;20046;-64
2021/08/12 02:10:36;;;;;;;4.05;3.75;;;14.00;99.90;;;;;;4989223;28;20050;-64
2021/08/12 02:13:05;;;;;;;4.55;4.22;;;14.00;99.90;;;;;;4988865;28;20483;-64
2021/08/12 02:15:31;;;;;;;5.50;5.00;;;13.90;99.90;;;;;;4988049;28;20081;-64
2021/08/12 02:17:57;;;;;;;4.82;4.45;;;14.00;99.90;;;;;;4986250;28;20445;-64
2021/08/12 02:20:23;;;;;;;5.28;4.88;;;14.00;99.90;;;;;;4989312;28;20770;-64
2021/08/12 02:22:53;;;;;;;6.40;4.75;;;13.90;99.90;;;;;;4988756;28;20424;-64
2021/08/12 02:25:31;;;;;;;5.30;4.90;;;14.00;99.90;;;;;;4984373;28;20503;-64
2021/08/12 02:27:59;;;;;;;5.05;4.65;;;14.00;99.90;;;;;;4988558;28;20045;-64
2021/08/12 02:30:25;;;;;;;5.28;4.70;;;13.90;99.90;;;;;;4988714;28;20644;-64
2021/08/12 02:32:53;;;;;;;5.55;5.05;;;14.00;99.90;;;;;;4988043;28;20042;-64
2021/08/12 02:35:19;;;;;;;5.70;5.20;;;14.00;99.90;;;;;;4988737;28;20471;-64
2021/08/12 02:37:47;;;;;;;5.53;5.07;;;14.00;99.90;;;;;;4988976;28;20069;-64
2021/08/12 02:40:13;;;;;;;6.00;5.47;;;14.00;99.90;;;;;;4988240;28;20050;-64
2021/08/12 02:42:42;;;;;;;6.32;5.82;;;14.00;99.90;;;;;;4984602;28;20439;-64
2021/08/12 02:45:09;;;;;;;6.93;6.32;;;14.00;99.90;;;;;;4988662;28;20038;-63
2021/08/12 02:47:36;;;;;;;6.63;6.05;;;14.00;99.90;;;;;;4987262;28;20129;-63
2021/08/12 02:50:04;;;;;;;7.45;6.85;;;14.00;99.90;;;;;;4988352;28;20039;-63
2021/08/12 02:52:32;;;;;;;8.05;7.35;;;14.00;99.90;;;;;;4988735;28;20058;-63
2021/08/12 02:54:58;;;;;;;7.78;7.18;;;14.10;99.90;;;;;;4988607;28;20114;-63
2021/08/12 02:57:24;;;;;;;8.98;7.40;;;14.10;99.90;;;;;;4988497;28;20038;-63
2021/08/12 02:59:50;;;;;;;7.72;7.03;;;14.00;99.90;;;;;;4988048;28;20038;-63
2021/08/12 03:02:18;;;;;;;6.80;6.15;;;13.90;99.90;;;;;;4988419;28;20030;-63
2021/08/12 03:04:44;;;;;;;7.72;6.55;;;13.90;99.90;;;;;;4986089;28;20042;-63
2021/08/12 03:07:12;;;;;;;7.32;6.35;;;14.00;99.90;;;;;;4987805;28;20659;-63
2021/08/12 03:09:40;;;;;;;6.55;6.05;;;14.00;99.90;;;;;;4988178;28;20046;-63
2021/08/12 03:12:08;;;;;;;8.05;7.18;;;14.00;99.90;;;;;;4970943;28;20034;-63
2021/08/12 03:14:35;;;;;;;9.23;8.32;;;13.90;99.90;;;;;;4988138;28;20042;-63
2021/08/12 03:17:02;;;;;;;7.68;6.97;;;13.80;99.90;;;;;;4984028;28;20488;-63
2021/08/12 03:19:28;;;;;;;6.93;6.43;;;13.80;99.90;;;;;;4988064;28;20103;-63
2021/08/12 03:22:05;;;;;;;7.78;7.18;;;13.90;99.90;;;;;;4985068;28;20046;-63
2021/08/12 03:24:34;;;;;;;8.65;7.85;;;13.90;99.90;;;;;;4987727;28;20035;-63
2021/08/12 03:27:01;;;;;;;9.00;8.27;;;14.00;99.90;;;;;;4987301;28;20441;-63
2021/08/12 03:29:26;;;;;;;10.23;8.30;;;14.00;99.90;;;;;;4988284;28;20046;-63
2021/08/12 03:31:53;;;;;;;9.90;9.00;;;14.00;99.90;;;;;;4987777;28;20042;-63
2021/08/12 03:34:19;;;;;;;10.18;9.43;;;13.90;99.90;;;;;;4989795;28;20050;-63
2021/08/12 03:36:45;;;;;;;10.45;9.65;;;14.10;99.90;;;;;;4991633;28;20030;-63
2021/08/12 03:39:10;;;;;;;10.90;9.90;;;14.10;99.90;;;;;;4991150;28;20045;-63
2021/08/12 03:41:37;;;;;;;12.05;11.05;;;14.10;99.90;;;;;;4990097;28;20046;-63
2021/08/12 03:44:03;;;;;;;11.10;10.10;;;14.10;99.90;;;;;;4991559;28;20087;-63
2021/08/12 03:46:28;;;;;;;13.38;12.07;;;14.10;99.90;;;;;;4998477;22;20041;-62
2021/08/12 03:48:54;;;;;;;13.00;11.90;;;14.10;99.90;;;;;;4990381;28;20046;-63
2021/08/12 03:51:20;;;;;;;14.02;12.30;;;14.10;99.90;;;;;;4987263;28;20114;-62
2021/08/12 03:53:45;;;;;;;13.02;11.93;;;14.00;99.90;;;;;;4991321;28;20042;-63
2021/08/12 03:56:11;;;;;;;13.48;12.32;;;14.10;99.90;;;;;;4991288;28;20087;-63
2021/08/12 03:58:37;;;;;;;13.65;12.38;;;14.10;99.90;;;;;;4990199;28;20046;-62
2021/08/12 04:01:06;;;;;;;13.52;12.35;;;14.10;99.90;;;;;;4991435;28;20062;-63
2021/08/12 04:03:32;;;;;;;12.90;11.90;;;14.10;99.90;;;;;;4991023;28;20123;-63
2021/08/12 04:05:57;;;;;;;11.95;10.95;;;14.10;99.90;;;;;;4986890;28;20104;-63
2021/08/12 04:08:23;;;;;;;12.15;11.15;;;14.10;99.90;;;;;;4989336;28;20582;-63
2021/08/12 04:10:50;;;;;;;13.30;12.10;;;14.10;99.90;;;;;;4987240;28;20057;-63
2021/08/12 04:13:16;;;;;;;13.32;12.05;;;14.20;99.90;;;;;;4991056;28;20038;-63
2021/08/12 04:15:42;;;;;;;13.38;12.27;;;14.10;99.90;;;;;;5005969;28;20047;-63
2021/08/12 04:18:07;;;;;;;13.55;12.45;;;14.20;99.90;;;;;;4991270;28;20034;-63
2021/08/12 04:20:33;;;;;;;14.82;13.48;;;14.20;99.90;;;;;;4989197;28;20043;-63
2021/08/12 04:22:59;;;;;;;11.90;10.82;;;14.10;99.90;;;;;;4993726;28;20163;-63
2021/08/12 04:25:24;;;;;;;12.48;11.48;;;14.10;99.90;;;;;;4989859;28;20046;-63
2021/08/12 04:27:50;;;;;;;13.50;12.20;;;14.00;99.90;;;;;;4989030;28;20196;-63
2021/08/12 04:30:15;;;;;;;13.27;12.18;;;14.00;99.90;;;;;;4990359;28;20582;-63
2021/08/12 04:32:41;;;;;;;14.18;12.90;;;14.00;99.90;;;;;;4990171;28;20037;-63
2021/08/12 04:35:08;;;;;;;18.00;12.77;;;14.00;99.90;;;;;;4990375;28;20109;-63
2021/08/12 04:37:47;;;;;;;13.25;11.95;;;14.10;99.90;;;;;;4990385;28;20783;-63
2021/08/12 04:40:15;;;;;;;12.52;11.43;;;14.10;99.90;;;;;;4990397;28;20045;-63
2021/08/12 04:42:42;;;;;;;14.35;13.05;;;14.20;99.90;;;;;;4989598;28;20043;-63
2021/08/12 04:45:09;;;;;;;16.15;14.70;;;14.20;99.90;;;;;;4989357;28;20046;-63
2021/08/12 04:47:36;;;;;;;17.00;15.55;;;14.30;99.90;;;;;;4990212;28;20073;-63
2021/08/12 04:50:03;;;;;;;16.63;15.18;;;14.30;99.90;;;;;;4990431;28;20464;-63
2021/08/12 04:52:29;;;;;;;17.48;16.02;;;14.40;99.90;;;;;;4990273;28;20038;-63
2021/08/12 04:54:54;;;;;;;18.63;16.98;;;14.40;99.90;;;;;;4989875;28;20034;-63
2021/08/12 04:57:20;;;;;;;17.55;16.13;;;14.50;99.90;;;;;;4986357;28;20609;-63
2021/08/12 04:59:46;;;;;;;17.77;16.27;;;14.50;99.90;;;;;;4986015;28;20053;-63
2021/08/12 05:02:11;;;;;;;17.50;16.02;;;14.60;99.90;;;;;;4989265;28;20051;-63
2021/08/12 05:04:37;;;;;;;19.23;17.42;;;14.60;99.90;;;;;;4990210;28;20042;-63
2021/08/12 05:07:03;;;;;;;19.02;17.23;;;14.70;99.90;;;;;;4988497;28;20524;-63
2021/08/12 05:09:29;;;;;;;18.23;16.48;;;14.80;99.90;;;;;;4990080;28;20045;-63
2021/08/12 05:11:55;;;;;;;17.13;15.65;;;14.80;99.90;;;;;;4990318;28;20038;-63
2021/08/12 05:14:21;;;;;;;17.73;16.13;;;14.90;99.90;;;;;;4989923;28;20050;-63
2021/08/12 05:16:46;;;;;;;20.17;18.38;;;15.00;99.90;;;;;;4988469;28;20073;-63
2021/08/12 05:19:12;;;;;;;20.70;18.85;;;15.10;99.90;;;;;;4988401;28;20042;-63
2021/08/12 05:21:38;;;;;;;20.02;18.15;;;15.20;99.90;;;;;;4991164;28;20038;-63
2021/08/12 05:24:03;;;;;;;20.33;18.40;;;15.30;99.90;;;;;;5002597;28;20042;-63
2021/08/12 05:26:29;;;;;;;20.55;18.55;;;15.40;99.90;;;;;;4995824;28;20483;-62
2021/08/12 05:28:56;;;;;;;21.45;19.52;;;15.50;99.90;;;;;;4989672;28;20054;-62
2021/08/12 05:31:22;;;;;;;21.65;19.35;;;15.70;99.90;;;;;;4988899;28;20053;-63
2021/08/12 05:33:48;;;;;;;21.60;19.60;;;15.80;99.90;;;;;;4989289;28;20035;-63
2021/08/12 05:36:13;;;;;;;21.73;19.83;;;15.90;99.90;;;;;;4988612;28;20046;-63
2021/08/12 05:38:39;;;;;;;22.63;20.42;;;15.90;99.90;;;;;;4987186;28;20049;-63
2021/08/12 05:41:05;;;;;;;21.13;19.23;;;16.00;99.90;;;;;;4988826;28;20460;-63
2021/08/12 05:43:31;;;;;;;22.77;20.58;;;16.00;99.90;;;;;;4985969;28;20046;-63
2021/08/12 05:45:57;;;;;;;20.98;18.95;;;16.00;99.90;;;;;;4985317;28;20115;-63
2021/08/12 05:48:22;;;;;;;21.00;19.10;;;16.00;99.90;;;;;;4985894;28;20057;-63
2021/08/12 05:50:48;;;;;;;23.92;21.45;;;16.00;99.90;;;;;;4988454;28;20349;-63
2021/08/12 05:53:18;;;;;;;22.15;19.95;;;16.10;99.90;;;;;;4988637;28;20049;-63
2021/08/12 05:55:44;;;;;;;21.10;18.85;;;16.30;99.90;;;;;;4986898;28;20087;-63
2021/08/12 05:58:10;;;;;;;21.20;19.33;;;17.00;99.90;;;;;;4986572;28;20038;-62
2021/08/12 06:00:36;;;;;;;19.45;17.73;;;17.90;99.90;;;;;;4985552;28;20096;-63
2021/08/12 06:03:09;;;;;;;18.63;16.95;;;18.70;99.90;;;;;;4986485;28;20053;-63
2021/08/12 06:05:37;;;;;;;17.98;16.27;;;19.10;99.90;;;;;;4988405;28;20042;-63
2021/08/12 06:08:08;;;;;;;17.80;16.20;;;20.00;99.90;;;;;;4986929;28;20052;-63
2021/08/12 06:10:35;;;;;;;17.83;16.20;;;20.90;99.90;;;;;;4987430;28;20107;-63
2021/08/12 06:13:00;;;;;;;16.98;15.52;;;21.30;99.90;;;;;;4988122;28;20045;-63
2021/08/12 06:15:28;;;;;;;17.98;16.30;;;21.10;99.90;;;;;;4989132;28;20046;-63
2021/08/12 06:17:54;;;;;;;18.05;16.45;;;20.80;99.90;;;;;;4987573;28;20042;-63
2021/08/12 06:20:21;;;;;;;20.80;18.83;;;20.50;99.90;;;;;;4989026;28;20075;-66
2021/08/12 06:22:49;;;;;;;20.10;18.08;;;20.30;99.90;;;;;;4988830;28;20038;-65
2021/08/12 06:25:15;;;;;;;17.85;16.15;;;20.10;99.90;;;;;;4988684;28;20035;-65
2021/08/12 06:27:41;;;;;;;20.02;17.98;;;19.90;99.90;;;;;;4988764;28;20825;-66
2021/08/12 06:30:09;;;;;;;21.33;19.33;;;19.80;99.90;;;;;;4986685;28;20046;-66
2021/08/12 06:32:35;;;;;;;18.23;16.60;;;19.80;99.90;;;;;;4989407;28;20196;-66
2021/08/12 06:35:01;;;;;;;18.42;16.65;;;19.60;99.90;;;;;;4987688;28;20145;-65
2021/08/12 06:37:45;;;;;;;20.65;18.42;;;19.40;99.90;;;;;;4979097;28;20043;-68
2021/08/12 06:40:13;;;;;;;20.90;18.85;;;19.30;99.90;;;;;;5030742;28;20036;-66
2021/08/12 06:42:39;;;;;;;20.27;18.23;;;19.30;99.90;;;;;;4989128;28;20100;-66
2021/08/12 06:45:06;;;;;;;20.35;18.45;;;19.40;99.90;;;;;;4989107;28;20046;-66
2021/08/12 06:47:35;;;;;;;20.88;18.85;;;19.40;99.90;;;;;;4989121;28;20077;-66
2021/08/12 06:50:02;;;;;;;19.38;17.48;;;19.50;99.90;;;;;;4988923;28;20095;-66
2021/08/12 06:52:27;;;;;;;19.85;17.85;;;19.60;99.90;;;;;;4988222;28;20415;-65
2021/08/12 06:54:53;;;;;;;19.92;18.02;;;19.70;99.90;;;;;;4969366;28;20043;-66
2021/08/12 06:57:19;;;;;;;19.52;17.73;;;19.90;99.90;;;;;;4974355;28;20145;-66
2021/08/12 06:59:44;;;;;;;20.17;18.27;;;20.00;99.90;;;;;;4989125;28;20558;-66
2021/08/12 07:02:10;;;;;;;17.85;16.05;;;20.20;99.90;;;;;;4989072;28;20042;-66
2021/08/12 07:04:36;;;;;;;18.83;16.75;;;20.80;99.90;;;;;;4988879;28;20384;-66
2021/08/12 07:07:01;;;;;;;17.70;15.95;;;21.00;99.90;;;;;;4988666;28;20042;-66
2021/08/12 07:09:27;;;;;;;17.10;15.57;;;21.00;99.90;;;;;;4988422;28;20035;-66
2021/08/12 07:11:53;;;;;;;18.10;16.50;;;21.00;99.90;;;;;;4992324;28;20046;-66
2021/08/12 07:14:18;;;;;;;17.95;16.15;;;21.20;99.90;;;;;;4992285;28;20041;-66
2021/08/12 07:16:44;;;;;;;17.70;16.00;;;21.40;99.90;;;;;;4992276;28;20049;-66
2021/08/12 07:19:10;;;;;;;17.10;15.30;;;21.40;99.90;;;;;;4990974;28;20046;-66
2021/08/12 07:21:39;;;;;;;16.70;15.02;;;21.30;99.90;;;;;;4990713;28;20064;-64
2021/08/12 07:24:04;;;;;;;16.80;15.15;;;21.90;99.90;;;;;;4996628;28;20100;-64
2021/08/12 07:26:30;;;;;;;16.75;15.23;;;22.40;99.90;;;;;;4990217;28;21541;-64
2021/08/12 07:28:56;;;;;;;15.15;13.68;;;22.40;99.90;;;;;;4991421;28;20408;-64
2021/08/12 07:31:21;;;;;;;15.88;14.38;;;22.70;99.90;;;;;;4991440;28;20038;-64
2021/08/12 07:33:47;;;;;;;15.27;13.55;;;23.50;99.90;;;;;;4991839;28;20368;-63
2021/08/12 07:36:13;;;;;;;15.65;14.07;;;23.50;99.90;;;;;;4991246;28;20109;-63
2021/08/12 07:38:38;;;;;;;15.73;14.18;;;23.40;99.90;;;;;;4991620;28;20117;-63
2021/08/12 07:41:04;;;;;;;15.32;13.93;;;23.30;99.90;;;;;;4989088;28;20117;-64
2021/08/12 07:43:30;;;;;;;14.95;13.38;;;23.30;99.90;;;;;;4991682;28;20678;-64
2021/08/12 07:45:56;;;;;;;16.17;14.60;;;24.10;99.90;;;;;;4990720;28;20084;-64
2021/08/12 07:48:22;;;;;;;15.93;14.52;;;25.00;97.80;;;;;;4990864;28;20051;-64
2021/08/12 07:50:48;;;;;;;16.08;14.38;;;25.60;96.90;;;;;;4976068;28;20472;-64
2021/08/12 07:53:14;;;;;;;16.95;13.57;;;26.30;95.90;;;;;;4972067;28;20063;-65
2021/08/12 07:55:40;;;;;;;14.82;13.25;;;26.50;95.90;;;;;;4971619;28;20053;-64
2021/08/12 07:58:05;;;;;;;14.43;12.93;;;26.30;96.20;;;;;;4991300;28;20460;-64
2021/08/12 08:00:32;;;;;;;16.60;13.70;;;26.40;96.20;;;;;;4991254;28;20046;-65
2021/08/12 08:02:58;;;;;;;14.10;12.57;;;26.40;94.60;;;;;;4991224;28;20383;-64
2021/08/12 08:05:25;;;;;;;15.10;13.13;;;25.70;95.60;;;;;;4990022;28;20053;-64
2021/08/12 08:07:52;;;;;;;14.95;13.50;;;25.30;96.20;;;;;;4991351;28;20069;-67
2021/08/12 08:10:21;;;;;;;13.82;12.30;;;24.70;96.70;;;;;;4990249;28;20081;-68
2021/08/12 08:12:47;;;;;;;13.57;12.25;;;24.30;98.00;;;;;;4990048;28;20129;-68
2021/08/12 08:15:15;;;;;;;14.55;11.40;;;24.10;97.80;;;;;;4990872;28;20121;-68
2021/08/12 08:17:41;;;;;;;13.48;12.18;;;23.80;98.40;;;;;;4989735;28;20092;-63
2021/08/12 08:20:09;;;;;;;12.85;11.45;;;23.80;98.40;;;;;;4989422;28;20030;-63
2021/08/12 08:22:36;;;;;;;13.52;12.20;;;23.70;98.20;;;;;;4961657;28;20119;-63
2021/08/12 08:25:03;;;;;;;13.40;12.10;;;23.60;98.60;;;;;;4989932;28;20042;-63
2021/08/12 08:27:29;;;;;;;11.35;10.15;;;23.70;98.10;;;;;;4989898;28;20030;-63
2021/08/12 08:29:54;;;;;;;12.23;11.13;;;23.60;97.90;;;;;;4990489;28;20534;-63
2021/08/12 08:32:20;;;;;;;11.90;10.18;;;23.50;98.70;;;;;;4990586;28;20125;-68
2021/08/12 08:34:46;;;;;;;12.68;11.40;;;23.50;98.80;;;;;;4989148;28;20039;-68
2021/08/12 08:37:13;;;;;;;12.90;10.88;;;23.50;98.50;;;;;;4990411;28;20038;-68
2021/08/12 08:39:39;;;;;;;11.05;9.85;;;23.50;98.70;;;;;;4993523;28;20035;-68
2021/08/12 08:42:06;;;;;;;11.30;9.75;;;23.50;99.30;;;;;;4990345;28;20042;-68
2021/08/12 08:44:34;;;;;;;10.40;9.30;;;23.50;98.40;;;;;;4989453;28;20043;-68
2021/08/12 08:47:01;;;;;;;10.57;9.02;;;23.40;98.10;;;;;;4988268;28;20058;-68
2021/08/12 08:49:29;;;;;;;9.20;8.40;;;23.30;98.00;;;;;;4989020;28;20034;-68
2021/08/12 08:51:57;;;;;;;9.25;8.35;;;23.40;98.20;;;;;;4988868;28;20038;-68
2021/08/12 08:54:24;;;;;;;9.88;8.15;;;23.40;97.90;;;;;;4990414;28;20050;-68
2021/08/12 08:56:50;;;;;;;12.40;8.23;;;23.50;97.50;;;;;;4988742;28;20049;-68
2021/08/12 08:59:17;;;;;;;7.50;6.60;;;23.40;97.60;;;;;;4989092;28;20048;-68
2021/08/12 09:01:42;;;;;;;7.95;7.13;;;23.50;97.30;;;;;;4990116;28;20041;-68
2021/08/12 09:04:08;;;;;;;7.32;6.63;;;23.40;97.60;;;;;;4989155;28;20046;-69
2021/08/12 09:06:34;;;;;;;9.07;7.55;;;23.40;98.10;;;;;;4972921;28;20133;-68
2021/08/12 09:08:59;;;;;;;7.60;6.57;;;23.50;97.80;;;;;;4988643;28;20066;-68
2021/08/12 09:11:26;;;;;;;6.90;6.00;;;23.50;98.10;;;;;;4988488;28;20045;-68
2021/08/12 09:13:53;;;;;;;8.02;5.85;;;23.70;97.30;;;;;;4995800;28;20402;-68
2021/08/12 09:16:32;;;;;;;7.82;5.60;;;23.80;96.90;;;;;;5023163;28;20643;-64
2021/08/12 09:19:20;;;;;;;6.65;5.82;;;23.80;97.60;;;;;;5016044;28;20390;-63
2021/08/12 09:21:48;;;;;;;6.47;5.65;;;23.80;97.90;;;;;;5038211;28;20116;-63
2021/08/12 09:24:14;;;;;;;5.82;5.10;;;23.80;97.30;;;;;;5056308;28;20467;-64
2021/08/12 09:26:41;;;;;;;6.85;5.57;;;23.80;97.70;;;;;;5039597;28;20054;-64
2021/08/12 09:29:08;;;;;;;5.72;5.07;;;23.90;97.70;;;;;;5046625;28;20035;-64
2021/08/12 09:31:35;;;;;;;5.40;4.90;;;23.90;97.80;;;;;;5036511;28;20044;-64
2021/08/12 09:34:12;;;;;;;7.43;4.43;;;24.00;97.10;;;;;;5036420;28;20044;-64
2021/08/12 09:36:39;;;;;;;8.40;4.75;;;24.10;96.60;;;;;;4993664;28;20041;-68
2021/08/12 09:39:19;;;;;;;7.75;4.72;;;24.10;96.60;;;;;;4987985;28;20065;-68
2021/08/12 09:41:48;;;;;;;8.48;5.90;;;24.10;96.10;;;;;;4987392;28;20042;-68
2021/08/12 09:44:52;;;;;;;6.15;5.55;;;24.20;95.00;;;;;;4976945;28;20395;-72
2021/08/12 09:47:18;;;;;;;7.88;6.72;;;24.20;95.40;;;;;;4988209;28;20058;-72
2021/08/12 09:49:57;;;;;;;8.27;6.75;;;24.30;95.60;;;;;;4989405;28;20050;-72
2021/08/12 09:52:34;;;;;;;8.65;6.72;;;24.20;95.60;;;;;;4988734;28;20108;-71
2021/08/12 09:55:05;;;;;;;8.55;6.65;;;24.20;96.30;;;;;;4988588;28;20375;-72
2021/08/12 09:57:44;;;;;;;8.00;7.20;;;24.20;96.20;;;;;;4988428;28;20045;-71
2021/08/12 10:00:25;;;;;;;8.20;7.05;;;24.30;96.60;;;;;;4988392;28;20456;-72
2021/08/12 10:02:52;;;;;;;9.50;7.15;;;24.40;96.10;;;;;;4988193;28;20035;-72
2021/08/12 10:05:18;;;;;;;7.90;6.90;;;24.50;95.30;;;;;;4987486;28;20062;-72
2021/08/12 10:07:50;;;;;;;8.57;6.95;;;24.50;95.60;;;;;;4989559;28;20404;-71
2021/08/12 10:10:19;;;;;;;6.97;6.28;;;24.60;95.20;;;;;;4989294;28;20114;-72
2021/08/12 10:12:52;;;;;;;8.18;6.50;;;24.60;95.20;;;;;;4988411;28;20125;-72
2021/08/12 10:15:23;;;;;;;6.57;5.80;;;24.60;96.00;;;;;;4971819;28;20556;-72
2021/08/12 10:17:49;;;;;;;7.78;6.93;;;24.70;96.20;;;;;;4988274;28;20038;-72
2021/08/12 10:20:20;;;;;;;8.38;6.18;;;24.70;95.70;;;;;;4988776;28;20030;-72
2021/08/12 10:22:47;;;;;;;8.27;6.07;;;24.80;94.60;;;;;;4989602;28;20403;-72
2021/08/12 10:25:16;;;;;;;6.93;6.13;;;24.80;94.50;;;;;;5005972;28;20052;-72
2021/08/12 10:27:44;;;;;;;6.38;5.78;;;24.80;94.10;;;;;;5071458;28;20485;-72
2021/08/12 10:30:10;;;;;;;5.93;4.50;;;24.80;94.80;;;;;;5071079;28;20033;-72
2021/08/12 10:32:45;;;;;;;6.97;4.22;;;24.90;94.70;;;;;;5071373;28;20094;-72
2021/08/12 10:35:11;;;;;;;6.07;5.03;;;25.00;93.80;;;;;;4988760;28;20114;-72
2021/08/12 10:37:37;;;;;;;6.03;4.97;;;25.10;93.40;;;;;;4989013;28;20479;-72
2021/08/12 10:40:03;;;;;;;7.78;4.93;;;25.00;93.20;;;;;;4988504;28;20050;-72
2021/08/12 10:42:30;;;;;;;6.63;4.65;;;25.00;93.80;;;;;;4988494;28;20050;-71
2021/08/12 10:44:56;;;;;;;5.57;4.70;;;25.00;93.70;;;;;;4987937;28;20038;-70
2021/08/12 10:47:49;;;;;;;5.28;4.75;;;25.00;93.80;;;;;;4988069;28;20779;-70
2021/08/12 10:50:26;;;;;;;;;;;25.00;92.60;;;;;;4984895;28;20052;-71
2021/08/12 10:53:07;;;;;;;5.75;4.30;;;25.20;93.20;;;;;;4985196;28;19922;-71
2021/08/12 10:56:00;;;;;;;5.28;4.18;;;25.30;93.80;;;;;;4987565;28;20034;-71
2021/08/12 10:58:33;;;;;;;3.80;3.42;;;25.20;93.10;;;;;;4984258;28;20126;-71
2021/08/12 11:01:00;;;;;;;5.38;4.10;;;25.20;93.10;;;;;;4988607;28;20091;-71
2021/08/12 11:03:32;;;;;;;4.45;3.85;;;25.20;92.50;;;;;;4988883;28;20499;-71
2021/08/12 11:06:09;;;;;;;5.32;4.25;;;25.20;91.70;;;;;;4986103;28;20061;-70
2021/08/12 11:08:51;;;;;;;5.20;4.28;;;25.50;92.30;;;;;;4986644;28;20043;-70
2021/08/12 11:11:25;;;;;;;5.90;4.47;;;25.50;92.10;;;;;;4987374;28;20464;-70
2021/08/12 11:13:58;;;;;;;5.18;4.07;;;25.40;92.10;;;;;;4984107;28;20039;-71
2021/08/12 11:16:45;;;;;;;5.75;4.13;;;25.60;91.30;;;;;;4987619;28;20076;-71
2021/08/12 11:19:23;;;;;;;4.35;3.90;;;25.60;92.20;;;;;;4985587;28;20536;-66
2021/08/12 11:21:50;;;;;;;7.10;4.72;;;25.70;92.10;;;;;;4987030;28;20042;-66
2021/08/12 11:24:22;;;;;;;6.95;5.07;;;25.60;92.00;;;;;;4984897;28;20096;-66
2021/08/12 11:26:47;;;;;;;5.60;5.00;;;25.70;91.70;;;;;;4986109;28;20038;-65
2021/08/12 11:29:22;;;;;;;5.70;4.47;;;25.80;91.80;;;;;;4986180;28;20399;-65
2021/08/12 11:31:47;;;;;;;8.27;5.78;;;25.90;92.00;;;;;;4986196;28;20038;-65
2021/08/12 11:34:17;;;;;;;5.55;4.75;;;25.80;91.90;;;;;;4986430;28;20463;-65
2021/08/12 11:37:04;;;;;;;5.53;4.97;;;25.90;91.90;;;;;;4986840;28;20050;-65
2021/08/12 11:39:30;;;;;;;5.53;5.00;;;26.00;91.70;;;;;;4981179;28;20042;-65
2021/08/12 11:41:56;;;;;;;6.78;4.70;;;26.10;92.00;;;;;;4985417;28;20049;-65
2021/08/12 11:44:22;;;;;;;5.60;3.90;;;26.10;92.00;;;;;;4987045;28;20071;-65
2021/08/12 11:46:48;;;;;;;6.15;4.07;;;26.10;92.00;;;;;;4986286;28;20112;-67
2021/08/12 11:49:16;;;;;;;5.10;4.40;;;26.10;90.90;;;;;;4986890;28;20054;-67
2021/08/12 11:51:43;;;;;;;7.15;4.38;;;26.10;92.10;;;;;;4987496;28;20083;-67
2021/08/12 11:54:22;;;;;;;5.90;3.88;;;26.00;90.80;;;;;;4987234;28;20049;-67
2021/08/12 11:56:51;;;;;;;4.45;3.92;;;26.20;90.70;;;;;;4984205;28;20503;-67
2021/08/12 11:59:26;;;;;;;5.57;3.95;;;26.00;91.20;;;;;;4986475;28;20045;-66
2021/08/12 12:01:53;;;;;;;4.65;4.05;;;26.10;90.40;;;;;;4989975;28;20038;-67
2021/08/12 12:04:19;;;;;;;4.88;4.18;;;26.00;89.20;;;;;;4989153;28;20030;-67
2021/08/12 12:06:47;;;;;;;4.68;3.70;;;26.00;90.20;;;;;;4990763;28;20696;-67
2021/08/12 12:09:27;;;;;;;4.47;3.80;;;26.00;90.60;;;;;;4988799;28;20513;-67
2021/08/12 12:11:57;;;;;;;5.72;4.57;;;26.00;90.70;;;;;;4989610;28;20036;-67
2021/08/12 12:14:26;;;;;;;4.47;3.75;;;26.10;90.30;;;;;;4989409;28;20042;-67
2021/08/12 12:17:12;;;;;;;4.63;4.05;;;26.10;90.90;;;;;;4990040;28;20674;-67
2021/08/12 12:19:57;;;;;;;4.50;3.72;;;26.20;90.90;;;;;;4990200;28;20038;-67
2021/08/12 12:22:23;;;;;;;6.43;4.50;;;26.30;91.20;;;;;;4991240;28;20120;-67
2021/08/12 12:24:48;;;;;;;5.65;4.90;;;26.20;90.90;;;;;;4989222;28;20030;-67
2021/08/12 12:27:24;;;;;;;4.30;3.90;;;26.20;91.30;;;;;;4990441;28;20392;-67
2021/08/12 12:29:50;;;;;;;6.07;5.30;;;26.20;90.80;;;;;;4989012;28;20042;-67
2021/08/12 12:32:17;;;;;;;6.28;4.53;;;26.00;90.60;;;;;;4990522;28;20038;-67
2021/08/12 12:34:54;;;;;;;6.15;4.03;;;26.00;91.50;;;;;;4989031;28;20054;-73
2021/08/12 12:37:22;;;;;;;8.65;5.15;;;25.90;92.40;;;;;;4987185;28;20038;-72
2021/08/12 12:39:48;;;;;;;6.50;4.82;;;26.00;92.60;;;;;;4990530;28;20463;-73
2021/08/12 12:42:15;;;;;;;7.10;4.80;;;26.10;91.50;;;;;;4990568;28;20455;-69
2021/08/12 12:45:01;;;;;;;6.57;4.80;;;26.00;92.40;;;;;;4990724;28;20061;-70